createdAt,value
2019-04-04T00:00:29.718Z,27.28
2019-04-04T00:01:29.711Z,26.98
2019-04-04T00:02:29.697Z,27.48
2019-04-04T00:03:30.004Z,26.98
2019-04-04T00:04:29.670Z,27.58
2019-04-04T00:05:29.660Z,27.58
2019-04-04T00:06:29.650Z,27.67
2019-04-04T00:07:29.773Z,27.58
2019-04-04T00:08:31.617Z,27.37
2019-04-04T00:09:31.165Z,27.58
2019-04-04T00:10:29.607Z,27.58
2019-04-04T00:11:29.595Z,26.88
2019-04-04T00:12:29.591Z,27.37
2019-04-04T00:13:29.573Z,27.37
2019-04-04T00:14:29.557Z,26.88
2019-04-04T00:15:29.577Z,26.98
2019-04-04T00:16:29.537Z,27.58
2019-04-04T00:17:29.524Z,27.67
2019-04-04T00:18:29.518Z,27.37
2019-04-04T00:19:29.915Z,27.08
2019-04-04T00:20:29.877Z,27.08
2019-04-04T00:21:29.513Z,27.58
2019-04-04T00:22:29.474Z,28.08
2019-04-04T00:23:29.458Z,28.08
2019-04-04T00:24:29.448Z,27.08
2019-04-04T00:25:29.436Z,27.18
2019-04-04T00:26:29.429Z,27.08
2019-04-04T00:27:29.451Z,27.67
2019-04-04T00:28:29.408Z,27.08
2019-04-04T00:29:29.400Z,28.08
2019-04-04T00:30:29.389Z,27.08
2019-04-04T00:31:29.371Z,27.18
2019-04-04T00:32:29.359Z,27.08
2019-04-04T00:33:29.356Z,27.18
2019-04-04T00:34:29.373Z,27.18
2019-04-04T00:35:31.139Z,27.37
2019-04-04T00:36:29.319Z,27.78
2019-04-04T00:37:29.313Z,27.18
2019-04-04T00:38:29.292Z,28.08
2019-04-04T00:39:29.288Z,27.18
2019-04-04T00:40:29.270Z,27.78
2019-04-04T00:41:29.258Z,27.78
2019-04-04T00:42:29.248Z,26.98
2019-04-04T00:43:29.238Z,27.78
2019-04-04T00:44:29.226Z,27.67
2019-04-04T00:45:29.596Z,27.78
2019-04-04T00:46:30.999Z,27.18
2019-04-04T00:47:29.197Z,27.78
2019-04-04T00:48:29.186Z,27.08
2019-04-04T00:49:29.175Z,27.67
2019-04-04T00:50:29.161Z,27.78
2019-04-04T00:51:29.181Z,27.18
2019-04-04T00:52:29.137Z,27.18
2019-04-04T00:53:29.126Z,27.78
2019-04-04T00:54:29.127Z,27.08
2019-04-04T00:55:29.108Z,27.78
2019-04-04T00:56:29.097Z,27.87
2019-04-04T00:57:29.429Z,27.67
2019-04-04T00:58:29.075Z,27.67
2019-04-04T00:59:29.064Z,27.78
2019-04-04T01:00:29.053Z,27.78
2019-04-04T01:01:29.044Z,27.87
2019-04-04T01:02:29.026Z,27.78
2019-04-04T01:03:30.039Z,27.78
2019-04-04T01:04:30.774Z,27.67
2019-04-04T01:05:30.121Z,27.18
2019-04-04T01:06:29.001Z,27.78
2019-04-04T01:07:28.975Z,27.78
2019-04-04T01:08:28.965Z,27.87
2019-04-04T01:09:28.960Z,27.78
2019-04-04T01:10:28.940Z,27.67
2019-04-04T01:11:28.927Z,27.78
2019-04-04T01:12:28.917Z,27.67
2019-04-04T01:13:28.906Z,27.78
2019-04-04T01:14:29.318Z,27.67
2019-04-04T01:15:29.042Z,27.67
2019-04-04T01:16:28.874Z,27.87
2019-04-04T01:17:28.860Z,27.87
2019-04-04T01:18:28.854Z,27.87
2019-04-04T01:19:28.847Z,27.18
2019-04-04T01:20:28.833Z,27.89
2019-04-04T01:21:28.841Z,27.87
2019-04-04T01:22:28.806Z,27.87
2019-04-04T01:23:28.796Z,27.79
2019-04-04T01:24:29.186Z,27.87
2019-04-04T01:25:31.819Z,27.79
2019-04-04T01:26:28.768Z,27.89
2019-04-04T01:27:28.799Z,27.89
2019-04-04T01:28:28.744Z,27.87
2019-04-04T01:29:28.733Z,27.59
2019-04-04T01:30:28.722Z,27.99
2019-04-04T01:31:28.711Z,27.79
2019-04-04T01:32:28.699Z,27.58
2019-04-04T01:33:29.001Z,27.59
2019-04-04T01:34:28.673Z,27.89
2019-04-04T01:35:28.661Z,27.87
2019-04-04T01:36:28.650Z,27.87
2019-04-04T01:37:28.640Z,27.89
2019-04-04T01:38:29.100Z,27.79
2019-04-04T01:39:29.073Z,27.89
2019-04-04T01:40:28.611Z,27.67
2019-04-04T01:41:28.599Z,27.89
2019-04-04T01:42:28.598Z,27.87
2019-04-04T01:43:28.572Z,27.97
2019-04-04T01:44:28.561Z,27.89
2019-04-04T01:45:28.559Z,27.79
2019-04-04T01:46:28.539Z,27.59
2019-04-04T01:47:28.529Z,27.89
2019-04-04T01:48:28.518Z,27.79
2019-04-04T01:49:28.506Z,27.89
2019-04-04T01:50:28.499Z,27.59
2019-04-04T01:51:28.494Z,27.89
2019-04-04T01:52:28.858Z,27.89
2019-04-04T01:53:30.173Z,27.89
2019-04-04T01:54:29.981Z,27.89
2019-04-04T01:55:28.440Z,27.58
2019-04-04T01:56:28.429Z,27.79
2019-04-04T01:57:28.425Z,27.87
2019-04-04T01:58:28.413Z,27.87
2019-04-04T01:59:28.401Z,27.78
2019-04-04T02:00:28.389Z,27.89
2019-04-04T02:01:28.377Z,27.89
2019-04-04T02:02:28.368Z,27.87
2019-04-04T02:03:28.383Z,27.97
2019-04-04T02:04:28.346Z,27.78
2019-04-04T02:05:28.333Z,27.89
2019-04-04T02:06:29.022Z,27.89
2019-04-04T02:07:29.787Z,27.87
2019-04-04T02:08:31.378Z,27.78
2019-04-04T02:09:28.617Z,27.78
2019-04-04T02:10:28.280Z,27.87
2019-04-04T02:11:28.267Z,27.79
2019-04-04T02:12:28.257Z,27.89
2019-04-04T02:13:28.246Z,27.78
2019-04-04T02:14:28.232Z,27.87
2019-04-04T02:15:28.226Z,27.67
2019-04-04T02:16:28.206Z,27.79
2019-04-04T02:17:28.197Z,27.67
2019-04-04T02:18:28.185Z,27.67
2019-04-04T02:19:28.175Z,27.67
2019-04-04T02:20:28.167Z,27.89
2019-04-04T02:21:28.869Z,27.78
2019-04-04T02:22:30.634Z,27.87
2019-04-04T02:23:28.136Z,27.78
2019-04-04T02:24:29.815Z,27.78
2019-04-04T02:25:28.111Z,27.78
2019-04-04T02:26:28.096Z,27.78
2019-04-04T02:27:28.093Z,27.87
2019-04-04T02:28:28.076Z,27.87
2019-04-04T02:29:28.064Z,27.67
2019-04-04T02:30:28.058Z,27.87
2019-04-04T02:31:28.046Z,27.87
2019-04-04T02:32:28.034Z,27.87
2019-04-04T02:33:32.193Z,27.67
2019-04-04T02:34:28.023Z,27.79
2019-04-04T02:35:28.001Z,27.89
2019-04-04T02:36:27.992Z,27.67
2019-04-04T02:37:27.979Z,27.69
2019-04-04T02:38:28.318Z,27.37
2019-04-04T02:39:27.996Z,27.67
2019-04-04T02:40:27.947Z,27.69
2019-04-04T02:41:27.935Z,27.79
2019-04-04T02:42:27.922Z,27.89
2019-04-04T02:43:28.626Z,27.78
2019-04-04T02:44:31.669Z,27.89
2019-04-04T02:45:28.223Z,27.89
2019-04-04T02:46:27.879Z,27.89
2019-04-04T02:47:27.873Z,27.87
2019-04-04T02:48:27.863Z,27.89
2019-04-04T02:49:29.306Z,27.99
2019-04-04T02:50:27.836Z,27.89
2019-04-04T02:51:27.833Z,27.87
2019-04-04T02:52:27.812Z,27.59
2019-04-04T02:53:27.805Z,27.99
2019-04-04T02:54:27.788Z,27.59
2019-04-04T02:55:30.960Z,27.89
2019-04-04T02:56:27.767Z,27.69
2019-04-04T02:57:27.796Z,27.79
2019-04-04T02:58:27.750Z,27.89
2019-04-04T02:59:27.736Z,27.89
2019-04-04T03:00:27.960Z,27.89
2019-04-04T03:01:31.642Z,27.89
2019-04-04T03:02:28.724Z,27.79
2019-04-04T03:03:27.698Z,27.99
2019-04-04T03:04:27.678Z,27.89
2019-04-04T03:05:27.665Z,27.89
2019-04-04T03:06:27.657Z,27.99
2019-04-04T03:07:30.840Z,27.79
2019-04-04T03:08:27.963Z,27.89
2019-04-04T03:09:27.622Z,27.99
2019-04-04T03:10:27.617Z,27.89
2019-04-04T03:11:27.603Z,27.89
2019-04-04T03:12:27.594Z,27.89
2019-04-04T03:13:31.298Z,27.89
2019-04-04T03:14:27.604Z,27.89
2019-04-04T03:15:27.567Z,27.79
2019-04-04T03:16:27.544Z,27.99
2019-04-04T03:17:31.661Z,27.99
2019-04-04T03:18:28.525Z,27.89
2019-04-04T03:19:27.516Z,27.79
2019-04-04T03:20:27.512Z,27.89
2019-04-04T03:21:27.493Z,27.89
2019-04-04T03:22:28.357Z,27.99
2019-04-04T03:23:27.474Z,27.89
2019-04-04T03:24:27.460Z,27.59
2019-04-04T03:25:27.451Z,27.69
2019-04-04T03:26:27.765Z,27.89
2019-04-04T03:27:27.428Z,27.99
2019-04-04T03:28:31.377Z,28.09
2019-04-04T03:29:27.428Z,27.89
2019-04-04T03:30:27.401Z,27.89
2019-04-04T03:31:27.393Z,27.89
2019-04-04T03:32:27.394Z,27.89
2019-04-04T03:33:31.564Z,27.89
2019-04-04T03:34:28.372Z,27.59
2019-04-04T03:35:28.991Z,27.89
2019-04-04T03:36:27.322Z,27.79
2019-04-04T03:37:27.315Z,27.89
2019-04-04T03:38:27.338Z,27.79
2019-04-04T03:39:27.290Z,27.59
2019-04-04T03:40:27.278Z,27.99
2019-04-04T03:41:27.565Z,27.99
2019-04-04T03:42:27.269Z,27.89
2019-04-04T03:43:27.249Z,27.59
2019-04-04T03:44:27.247Z,27.99
2019-04-04T03:45:27.661Z,27.99
2019-04-04T03:46:27.242Z,27.69
2019-04-04T03:47:27.203Z,27.89
2019-04-04T03:48:27.189Z,27.99
2019-04-04T03:49:27.182Z,27.89
2019-04-04T03:50:30.203Z,27.99
2019-04-04T03:51:27.163Z,27.79
2019-04-04T03:52:27.153Z,28.09
2019-04-04T03:53:27.138Z,28.09
2019-04-04T03:54:27.130Z,27.99
2019-04-04T03:55:27.828Z,27.79
2019-04-04T03:56:27.114Z,27.99
2019-04-04T03:57:27.089Z,27.99
2019-04-04T03:58:28.048Z,27.99
2019-04-04T03:59:27.071Z,27.89
2019-04-04T04:00:27.058Z,27.99
2019-04-04T04:01:27.049Z,27.69
2019-04-04T04:02:27.047Z,27.89
2019-04-04T04:03:27.034Z,27.89
2019-04-04T04:04:28.277Z,27.89
2019-04-04T04:05:27.014Z,28.09
2019-04-04T04:06:26.994Z,27.79
2019-04-04T04:07:26.980Z,27.89
2019-04-04T04:08:26.994Z,27.89
2019-04-04T04:09:27.305Z,27.99
2019-04-04T04:10:26.946Z,28.09
2019-04-04T04:11:26.937Z,27.69
2019-04-04T04:12:26.924Z,27.89
2019-04-04T04:13:26.918Z,27.99
2019-04-04T04:14:26.945Z,27.79
2019-04-04T04:15:29.401Z,27.69
2019-04-04T04:16:26.888Z,27.89
2019-04-04T04:17:26.870Z,28.09
2019-04-04T04:18:26.884Z,27.89
2019-04-04T04:19:29.895Z,27.79
2019-04-04T04:20:26.843Z,27.59
2019-04-04T04:21:26.829Z,27.89
2019-04-04T04:22:26.818Z,27.89
2019-04-04T04:23:26.808Z,27.69
2019-04-04T04:24:29.754Z,27.69
2019-04-04T04:25:26.786Z,27.79
2019-04-04T04:26:26.821Z,27.79
2019-04-04T04:27:26.763Z,27.89
2019-04-04T04:28:26.753Z,27.89
2019-04-04T04:29:29.359Z,27.69
2019-04-04T04:30:26.727Z,27.99
2019-04-04T04:31:26.717Z,27.59
2019-04-04T04:32:26.711Z,27.79
2019-04-04T04:33:28.944Z,27.89
2019-04-04T04:34:26.761Z,27.89
2019-04-04T04:35:26.675Z,27.89
2019-04-04T04:36:26.663Z,27.89
2019-04-04T04:37:26.648Z,27.89
2019-04-04T04:38:27.143Z,27.79
2019-04-04T04:39:26.625Z,27.89
2019-04-04T04:40:26.614Z,27.79
2019-04-04T04:41:26.609Z,27.89
2019-04-04T04:42:27.494Z,27.79
2019-04-04T04:43:26.585Z,27.89
2019-04-04T04:44:26.907Z,27.89
2019-04-04T04:45:26.560Z,27.89
2019-04-04T04:46:26.554Z,27.79
2019-04-04T04:47:26.538Z,27.89
2019-04-04T04:48:30.879Z,27.69
2019-04-04T04:49:27.554Z,27.89
2019-04-04T04:50:26.509Z,27.89
2019-04-04T04:51:26.543Z,27.89
2019-04-04T04:52:26.489Z,27.99
2019-04-04T04:53:26.471Z,27.99
2019-04-04T04:54:26.460Z,27.89
2019-04-04T04:55:27.224Z,27.89
2019-04-04T04:56:26.437Z,27.89
2019-04-04T04:57:29.918Z,27.89
2019-04-04T04:58:26.415Z,27.89
2019-04-04T04:59:26.403Z,27.99
2019-04-04T05:00:27.963Z,27.89
2019-04-04T05:01:26.407Z,27.89
2019-04-04T05:02:26.375Z,27.99
2019-04-04T05:03:26.365Z,27.59
2019-04-04T05:04:28.242Z,27.99
2019-04-04T05:05:26.339Z,27.89
2019-04-04T05:06:26.326Z,27.89
2019-04-04T05:07:26.653Z,27.89
2019-04-04T05:08:26.304Z,27.99
2019-04-04T05:09:26.299Z,27.89
2019-04-04T05:10:26.287Z,27.99
2019-04-04T05:11:26.276Z,27.59
2019-04-04T05:12:26.264Z,27.69
2019-04-04T05:13:28.796Z,27.79
2019-04-04T05:14:27.826Z,27.89
2019-04-04T05:15:26.231Z,27.89
2019-04-04T05:16:26.221Z,27.79
2019-04-04T05:17:26.207Z,27.59
2019-04-04T05:18:26.193Z,27.59
2019-04-04T05:19:26.204Z,27.69
2019-04-04T05:20:29.708Z,27.99
2019-04-04T05:21:28.747Z,27.89
2019-04-04T05:22:26.171Z,27.59
2019-04-04T05:23:26.149Z,27.59
2019-04-04T05:24:26.132Z,27.59
2019-04-04T05:25:26.141Z,27.89
2019-04-04T05:26:26.122Z,27.79
2019-04-04T05:27:26.106Z,27.99
2019-04-04T05:28:26.083Z,27.89
2019-04-04T05:29:26.072Z,27.59
2019-04-04T05:30:26.069Z,27.99
2019-04-04T05:31:26.056Z,27.89
2019-04-04T05:32:26.040Z,27.99
2019-04-04T05:33:27.479Z,27.69
2019-04-04T05:34:26.021Z,27.89
2019-04-04T05:35:26.011Z,28.09
2019-04-04T05:36:26.001Z,27.59
2019-04-04T05:37:27.500Z,27.99
2019-04-04T05:38:25.975Z,27.89
2019-04-04T05:39:25.961Z,27.89
2019-04-04T05:40:25.952Z,27.89
2019-04-04T05:41:27.274Z,27.99
2019-04-04T05:42:25.938Z,27.99
2019-04-04T05:43:25.942Z,27.89
2019-04-04T05:44:25.910Z,27.89
2019-04-04T05:45:25.934Z,27.69
2019-04-04T05:46:25.905Z,27.79
2019-04-04T05:47:25.891Z,27.89
2019-04-04T05:48:27.114Z,27.69
2019-04-04T05:49:25.876Z,27.99
2019-04-04T05:50:25.841Z,27.59
2019-04-04T05:51:25.830Z,27.89
2019-04-04T05:52:25.843Z,27.59
2019-04-04T05:53:25.830Z,27.89
2019-04-04T05:54:25.804Z,27.99
2019-04-04T05:55:25.800Z,27.99
2019-04-04T05:56:25.778Z,27.99
2019-04-04T05:57:25.763Z,27.89
2019-04-04T05:58:25.755Z,27.89
2019-04-04T05:59:25.740Z,27.89
2019-04-04T06:00:27.458Z,27.59
2019-04-04T06:01:25.767Z,27.79
2019-04-04T06:02:25.741Z,27.59
2019-04-04T06:03:25.701Z,27.89
2019-04-04T06:04:25.688Z,27.69
2019-04-04T06:05:27.193Z,27.99
2019-04-04T06:06:25.695Z,27.79
2019-04-04T06:07:25.693Z,27.79
2019-04-04T06:08:25.647Z,27.89
2019-04-04T06:09:25.632Z,27.89
2019-04-04T06:10:25.621Z,27.79
2019-04-04T06:11:25.609Z,27.79
2019-04-04T06:12:25.757Z,27.69
2019-04-04T06:13:27.058Z,27.69
2019-04-04T06:14:25.582Z,27.79
2019-04-04T06:15:25.568Z,27.89
2019-04-04T06:16:25.558Z,27.89
2019-04-04T06:17:27.004Z,27.89
2019-04-04T06:18:25.535Z,27.69
2019-04-04T06:19:25.555Z,27.79
2019-04-04T06:20:25.514Z,27.79
2019-04-04T06:21:25.497Z,27.79
2019-04-04T06:22:25.486Z,27.79
2019-04-04T06:23:25.793Z,27.29
2019-04-04T06:24:27.295Z,27.69
2019-04-04T06:25:25.794Z,27.89
2019-04-04T06:26:25.446Z,27.79
2019-04-04T06:27:25.436Z,27.89
2019-04-04T06:28:25.423Z,27.99
2019-04-04T06:29:25.409Z,27.79
2019-04-04T06:30:25.396Z,27.79
2019-04-04T06:31:26.906Z,27.79
2019-04-04T06:32:25.375Z,27.69
2019-04-04T06:33:25.368Z,27.09
2019-04-04T06:34:25.352Z,27.78
2019-04-04T06:35:25.342Z,27.79
2019-04-04T06:36:25.332Z,27.09
2019-04-04T06:37:25.331Z,27.09
2019-04-04T06:38:25.313Z,27.89
2019-04-04T06:39:25.791Z,27.69
2019-04-04T06:40:25.293Z,26.98
2019-04-04T06:41:28.000Z,27.78
2019-04-04T06:42:25.269Z,27.29
2019-04-04T06:43:25.293Z,27.79
2019-04-04T06:44:25.244Z,27.89
2019-04-04T06:45:25.237Z,27.79
2019-04-04T06:46:25.225Z,27.79
2019-04-04T06:47:26.252Z,27.79
2019-04-04T06:48:27.085Z,27.09
2019-04-04T06:49:25.194Z,27.79
2019-04-04T06:50:25.176Z,27.09
2019-04-04T06:51:25.167Z,26.99
2019-04-04T06:52:25.154Z,27.09
2019-04-04T06:53:25.148Z,27.79
2019-04-04T06:54:25.631Z,27.18
2019-04-04T06:55:28.350Z,27.79
2019-04-04T06:56:25.115Z,27.18
2019-04-04T06:57:25.099Z,27.67
2019-04-04T06:58:25.087Z,27.67
2019-04-04T06:59:25.605Z,28.08
2019-04-04T07:00:25.065Z,27.78
2019-04-04T07:01:25.404Z,27.19
2019-04-04T07:02:25.048Z,27.09
2019-04-04T07:03:27.044Z,27.19
2019-04-04T07:04:25.027Z,27.18
2019-04-04T07:05:25.015Z,26.98
2019-04-04T07:06:25.005Z,27.69
2019-04-04T07:07:25.000Z,27.67
2019-04-04T07:08:24.984Z,28.08
2019-04-04T07:09:24.966Z,26.99
2019-04-04T07:10:24.956Z,27.78
2019-04-04T07:11:24.944Z,27.67
2019-04-04T07:12:28.237Z,26.98
2019-04-04T07:13:27.904Z,27.08
2019-04-04T07:14:24.914Z,27.08
2019-04-04T07:15:24.904Z,26.98
2019-04-04T07:16:24.894Z,27.08
2019-04-04T07:17:24.881Z,27.78
2019-04-04T07:18:24.866Z,27.18
2019-04-04T07:19:24.866Z,27.59
2019-04-04T07:20:24.844Z,26.98
2019-04-04T07:21:24.847Z,27.18
2019-04-04T07:22:25.505Z,27.18
2019-04-04T07:23:27.459Z,26.98
2019-04-04T07:24:24.800Z,27.18
2019-04-04T07:25:24.817Z,27.78
2019-04-04T07:26:24.798Z,26.98
2019-04-04T07:27:24.771Z,26.98
2019-04-04T07:28:24.767Z,27.08
2019-04-04T07:29:25.297Z,27.08
2019-04-04T07:30:27.984Z,27.08
2019-04-04T07:31:24.759Z,26.98
2019-04-04T07:32:24.712Z,27.67
2019-04-04T07:33:24.709Z,26.98
2019-04-04T07:34:24.694Z,27.97
2019-04-04T07:35:24.682Z,27.67
2019-04-04T07:36:24.674Z,27.58
2019-04-04T07:37:24.670Z,27.48
2019-04-04T07:38:24.650Z,27.37
2019-04-04T07:39:24.641Z,27.37
2019-04-04T07:40:24.643Z,27.58
2019-04-04T07:41:24.613Z,27.37
2019-04-04T07:42:24.601Z,27.58
2019-04-04T07:43:24.596Z,27.48
2019-04-04T07:44:24.582Z,27.37
2019-04-04T07:45:26.738Z,27.48
2019-04-04T07:46:24.560Z,27.37
2019-04-04T07:47:24.549Z,27.48
2019-04-04T07:48:24.539Z,27.58
2019-04-04T07:49:24.530Z,27.58
2019-04-04T07:50:26.371Z,27.48
2019-04-04T07:51:24.503Z,27.58
2019-04-04T07:52:24.490Z,27.37
2019-04-04T07:53:24.479Z,27.58
2019-04-04T07:54:24.468Z,27.48
2019-04-04T07:55:24.500Z,27.28
2019-04-04T07:56:24.446Z,27.37
2019-04-04T07:57:24.440Z,27.37
2019-04-04T07:58:24.428Z,27.37
2019-04-04T07:59:24.494Z,27.48
2019-04-04T08:00:24.407Z,27.37
2019-04-04T08:01:24.429Z,27.58
2019-04-04T08:02:24.380Z,27.58
2019-04-04T08:03:24.368Z,27.37
2019-04-04T08:04:24.357Z,27.58
2019-04-04T08:05:24.352Z,27.28
2019-04-04T08:06:24.345Z,27.58
2019-04-04T08:07:24.368Z,27.58
2019-04-04T08:08:24.319Z,27.48
2019-04-04T08:09:26.207Z,27.37
2019-04-04T08:10:24.296Z,27.48
2019-04-04T08:11:24.285Z,27.37
2019-04-04T08:12:24.276Z,27.58
2019-04-04T08:13:24.293Z,27.48
2019-04-04T08:14:24.248Z,27.37
2019-04-04T08:15:24.235Z,27.58
2019-04-04T08:16:24.224Z,27.28
2019-04-04T08:17:24.218Z,27.28
2019-04-04T08:18:24.208Z,27.28
2019-04-04T08:19:24.529Z,27.28
2019-04-04T08:20:24.186Z,27.37
2019-04-04T08:21:24.170Z,27.28
2019-04-04T08:22:24.159Z,27.37
2019-04-04T08:23:24.149Z,27.06
2019-04-04T08:24:24.137Z,27.48
2019-04-04T08:25:24.455Z,27.37
2019-04-04T08:26:24.115Z,27.26
2019-04-04T08:27:24.104Z,27.37
2019-04-04T08:28:24.092Z,27.28
2019-04-04T08:29:24.086Z,27.28
2019-04-04T08:30:24.074Z,27.37
2019-04-04T08:31:24.403Z,27.28
2019-04-04T08:32:24.054Z,27.28
2019-04-04T08:33:24.036Z,27.48
2019-04-04T08:34:24.026Z,27.28
2019-04-04T08:35:24.015Z,27.48
2019-04-04T08:36:24.004Z,27.36
2019-04-04T08:37:24.006Z,27.37
2019-04-04T08:38:23.987Z,27.26
2019-04-04T08:39:23.977Z,27.26
2019-04-04T08:40:23.964Z,27.28
2019-04-04T08:41:23.954Z,27.37
2019-04-04T08:42:23.943Z,27.36
2019-04-04T08:43:23.965Z,27.48
2019-04-04T08:44:23.920Z,27.48
2019-04-04T08:45:23.922Z,27.37
2019-04-04T08:46:23.894Z,27.47
2019-04-04T08:47:23.882Z,27.26
2019-04-04T08:48:23.930Z,27.78
2019-04-04T08:49:23.899Z,27.48
2019-04-04T08:50:23.854Z,27.36
2019-04-04T08:51:23.842Z,27.26
2019-04-04T08:52:23.830Z,27.36
2019-04-04T08:53:23.815Z,27.36
2019-04-04T08:54:23.806Z,27.47
2019-04-04T08:55:23.801Z,27.47
2019-04-04T08:56:23.785Z,27.47
2019-04-04T08:57:23.777Z,27.76
2019-04-04T08:58:23.765Z,27.76
2019-04-04T08:59:23.757Z,27.66
2019-04-04T09:00:23.743Z,27.26
2019-04-04T09:01:23.734Z,27.76
2019-04-04T09:02:23.716Z,27.76
2019-04-04T09:03:23.705Z,27.96
2019-04-04T09:04:24.261Z,27.76
2019-04-04T09:05:23.688Z,27.76
2019-04-04T09:06:23.677Z,27.76
2019-04-04T09:07:23.676Z,27.76
2019-04-04T09:08:23.656Z,27.66
2019-04-04T09:09:23.665Z,27.66
2019-04-04T09:10:23.629Z,27.66
2019-04-04T09:11:23.617Z,27.66
2019-04-04T09:12:23.610Z,27.66
2019-04-04T09:13:23.608Z,27.47
2019-04-04T09:14:23.584Z,27.66
2019-04-04T09:15:23.576Z,27.76
2019-04-04T09:16:23.561Z,27.76
2019-04-04T09:17:23.557Z,27.76
2019-04-04T09:18:23.544Z,27.47
2019-04-04T09:19:23.571Z,27.47
2019-04-04T09:20:23.521Z,27.66
2019-04-04T09:21:23.506Z,27.66
2019-04-04T09:22:24.259Z,27.47
2019-04-04T09:23:23.485Z,27.47
2019-04-04T09:24:23.488Z,27.26
2019-04-04T09:25:23.506Z,27.56
2019-04-04T09:26:23.456Z,27.47
2019-04-04T09:27:23.445Z,27.45
2019-04-04T09:28:23.434Z,27.26
2019-04-04T09:29:23.425Z,27.47
2019-04-04T09:30:23.433Z,27.47
2019-04-04T09:31:23.494Z,27.47
2019-04-04T09:32:23.390Z,27.56
2019-04-04T09:33:23.375Z,27.47
2019-04-04T09:34:23.364Z,27.66
2019-04-04T09:35:23.352Z,27.36
2019-04-04T09:36:23.341Z,27.47
2019-04-04T09:37:23.361Z,27.47
2019-04-04T09:38:23.323Z,28.06
2019-04-04T09:39:23.312Z,27.26
2019-04-04T09:40:23.302Z,27.56
2019-04-04T09:41:23.286Z,27.56
2019-04-04T09:42:23.274Z,27.47
2019-04-04T09:43:23.301Z,27.76
2019-04-04T09:44:23.253Z,27.76
2019-04-04T09:45:23.246Z,27.95
2019-04-04T09:46:23.230Z,27.76
2019-04-04T09:47:23.218Z,27.75
2019-04-04T09:48:23.208Z,27.76
2019-04-04T09:49:23.210Z,27.55
2019-04-04T09:50:23.192Z,27.75
2019-04-04T09:51:23.181Z,28.06
2019-04-04T09:52:23.171Z,26.95
2019-04-04T09:53:23.154Z,27.75
2019-04-04T09:54:23.142Z,26.95
2019-04-04T09:55:23.135Z,27.05
2019-04-04T09:56:23.120Z,27.15
2019-04-04T09:57:23.112Z,26.65
2019-04-04T09:58:23.102Z,26.65
2019-04-04T09:59:23.095Z,27.45
2019-04-04T10:00:23.667Z,27.15
2019-04-04T10:01:23.095Z,27.55
2019-04-04T10:02:23.058Z,27.05
2019-04-04T10:03:23.052Z,27.05
2019-04-04T10:04:23.037Z,27.15
2019-04-04T10:05:23.020Z,26.75
2019-04-04T10:06:23.011Z,27.45
2019-04-04T10:07:25.233Z,26.75
2019-04-04T10:08:22.989Z,26.86
2019-04-04T10:09:22.983Z,26.75
2019-04-04T10:10:22.969Z,26.64
2019-04-04T10:11:22.960Z,26.86
2019-04-04T10:12:22.949Z,26.56
2019-04-04T10:13:22.963Z,26.56
2019-04-04T10:14:22.921Z,26.34
2019-04-04T10:15:22.911Z,26.56
2019-04-04T10:16:22.900Z,26.56
2019-04-04T10:17:22.889Z,26.34
2019-04-04T10:18:22.898Z,26.56
2019-04-04T10:19:22.902Z,26.75
2019-04-04T10:20:22.859Z,26.54
2019-04-04T10:21:22.849Z,26.44
2019-04-04T10:22:22.839Z,26.56
2019-04-04T10:23:22.829Z,26.54
2019-04-04T10:24:22.819Z,26.65
2019-04-04T10:25:22.835Z,26.54
2019-04-04T10:26:22.789Z,26.54
2019-04-04T10:27:22.778Z,27.04
2019-04-04T10:28:23.483Z,26.54
2019-04-04T10:29:22.764Z,26.34
2019-04-04T10:30:22.751Z,26.64
2019-04-04T10:31:22.778Z,26.54
2019-04-04T10:32:22.731Z,27.14
2019-04-04T10:33:22.720Z,26.84
2019-04-04T10:34:22.707Z,26.84
2019-04-04T10:35:22.696Z,26.84
2019-04-04T10:36:22.692Z,26.53
2019-04-04T10:37:22.702Z,26.82
2019-04-04T10:38:22.659Z,27.03
2019-04-04T10:39:28.761Z,26.82
2019-04-04T10:40:23.635Z,26.53
2019-04-04T10:41:22.631Z,26.82
2019-04-04T10:42:22.619Z,27.12
2019-04-04T10:43:22.942Z,27.12
2019-04-04T10:44:22.598Z,26.92
2019-04-04T10:45:22.588Z,27.23
2019-04-04T10:46:22.570Z,27.21
2019-04-04T10:47:22.561Z,26.62
2019-04-04T10:48:22.551Z,26.63
2019-04-04T10:49:22.568Z,26.42
2019-04-04T10:50:22.527Z,26.02
2019-04-04T10:51:22.518Z,26.42
2019-04-04T10:52:22.505Z,26.22
2019-04-04T10:53:22.501Z,26.12
2019-04-04T10:54:22.503Z,26.40
2019-04-04T10:55:22.515Z,26.10
2019-04-04T10:56:22.465Z,26.10
2019-04-04T10:57:22.450Z,26.31
2019-04-04T10:58:22.441Z,25.50
2019-04-04T10:59:22.429Z,26.09
2019-04-04T11:00:22.421Z,25.80
2019-04-04T11:01:22.420Z,26.09
2019-04-04T11:02:22.401Z,25.79
2019-04-04T11:03:22.390Z,26.18
2019-04-04T11:04:22.379Z,25.48
2019-04-04T11:05:22.363Z,25.98
2019-04-04T11:06:22.352Z,25.27
2019-04-04T11:07:22.373Z,25.77
2019-04-04T11:08:22.330Z,25.57
2019-04-04T11:09:22.325Z,25.18
2019-04-04T11:10:22.313Z,25.77
2019-04-04T11:11:22.303Z,25.57
2019-04-04T11:12:22.291Z,24.87
2019-04-04T11:13:32.942Z,24.97
2019-04-04T11:14:25.166Z,24.77
2019-04-04T11:15:22.255Z,24.77
2019-04-04T11:16:30.022Z,24.67
2019-04-04T11:17:23.235Z,24.37
2019-04-04T11:18:22.228Z,24.67
2019-04-04T11:19:31.024Z,24.27
2019-04-04T11:20:23.203Z,24.66
2019-04-04T11:21:22.208Z,24.66
2019-04-04T11:22:22.184Z,24.85
2019-04-04T11:23:22.174Z,25.05
2019-04-04T11:24:22.161Z,24.95
2019-04-04T11:25:22.153Z,24.65
2019-04-04T11:26:22.134Z,24.65
2019-04-04T11:27:22.124Z,24.05
2019-04-04T11:28:22.112Z,24.55
2019-04-04T11:29:22.106Z,24.65
2019-04-04T11:30:22.096Z,24.05
2019-04-04T11:31:22.118Z,24.74
2019-04-04T11:32:22.074Z,24.35
2019-04-04T11:33:22.061Z,24.45
2019-04-04T11:34:22.051Z,24.35
2019-04-04T11:35:22.037Z,24.95
2019-04-04T11:36:22.026Z,24.95
2019-04-04T11:37:22.045Z,24.95
2019-04-04T11:38:22.005Z,24.95
2019-04-04T11:39:21.994Z,24.55
2019-04-04T11:40:21.982Z,24.35
2019-04-04T11:41:21.976Z,24.33
2019-04-04T11:42:21.965Z,24.54
2019-04-04T11:43:22.248Z,24.24
2019-04-04T11:44:21.944Z,24.24
2019-04-04T11:45:21.928Z,23.94
2019-04-04T11:46:21.917Z,23.94
2019-04-04T11:47:21.907Z,24.03
2019-04-04T11:48:21.898Z,23.54
2019-04-04T11:49:21.926Z,24.22
2019-04-04T11:50:21.878Z,23.93
2019-04-04T11:51:21.867Z,23.83
2019-04-04T11:52:21.857Z,23.33
2019-04-04T11:53:21.848Z,23.33
2019-04-04T11:54:21.836Z,24.43
2019-04-04T11:55:21.867Z,23.62
2019-04-04T11:56:21.816Z,23.92
2019-04-04T11:57:23.901Z,23.72
2019-04-04T11:58:21.787Z,23.92
2019-04-04T11:59:21.780Z,23.92
2019-04-04T12:00:21.771Z,23.82
2019-04-04T12:01:21.796Z,24.02
2019-04-04T12:02:21.752Z,23.92
2019-04-04T12:03:21.739Z,23.92
2019-04-04T12:04:21.732Z,23.82
2019-04-04T12:05:21.713Z,23.81
2019-04-04T12:06:21.702Z,24.10
2019-04-04T12:07:21.730Z,23.61
2019-04-04T12:08:21.682Z,23.71
2019-04-04T12:09:21.669Z,23.99
2019-04-04T12:10:21.659Z,23.51
2019-04-04T12:11:22.832Z,24.19
2019-04-04T12:12:21.638Z,23.30
2019-04-04T12:13:22.776Z,23.11
2019-04-04T12:14:21.622Z,24.09
2019-04-04T12:15:21.612Z,23.90
2019-04-04T12:16:21.601Z,23.60
2019-04-04T12:17:21.585Z,23.50
2019-04-04T12:18:21.575Z,23.50
2019-04-04T12:19:21.592Z,24.19
2019-04-04T12:20:21.554Z,23.71
2019-04-04T12:21:21.549Z,23.61
2019-04-04T12:22:21.537Z,23.41
2019-04-04T12:23:21.526Z,23.43
2019-04-04T12:24:21.517Z,23.33
2019-04-04T12:25:21.531Z,23.82
2019-04-04T12:26:21.495Z,24.21
2019-04-04T12:27:21.485Z,23.72
2019-04-04T12:28:21.474Z,24.03
2019-04-04T12:29:21.459Z,24.03
2019-04-04T12:30:21.476Z,24.22
2019-04-04T12:31:21.471Z,24.03
2019-04-04T12:32:21.428Z,24.32
2019-04-04T12:33:21.421Z,24.92
2019-04-04T12:34:21.411Z,24.72
2019-04-04T12:35:21.401Z,24.92
2019-04-04T12:36:24.940Z,24.92
2019-04-04T12:37:21.407Z,24.92
2019-04-04T12:38:21.366Z,25.23
2019-04-04T12:39:21.353Z,25.21
2019-04-04T12:40:21.549Z,25.12
2019-04-04T12:41:21.332Z,25.21
2019-04-04T12:42:21.322Z,25.02
2019-04-04T12:43:21.318Z,25.21
2019-04-04T12:44:21.301Z,24.82
2019-04-04T12:45:21.294Z,24.72
2019-04-04T12:46:21.283Z,24.72
2019-04-04T12:47:21.273Z,24.92
2019-04-04T12:48:21.265Z,24.93
2019-04-04T12:49:21.280Z,25.12
2019-04-04T12:50:21.237Z,25.12
2019-04-04T12:51:21.226Z,24.72
2019-04-04T12:52:21.215Z,24.33